createdAt,value
2022-08-25T00:00:05.664Z,22.25
2022-08-25T00:00:45.329Z,22.24
2022-08-25T00:01:27.061Z,22.23
2022-08-25T00:02:08.189Z,22.20
2022-08-25T00:02:48.506Z,22.18
2022-08-25T00:03:28.994Z,22.17
2022-08-25T00:04:11.920Z,22.15
2022-08-25T00:04:53.585Z,22.15
2022-08-25T00:05:32.345Z,22.14
2022-08-25T00:06:07.525Z,22.14
2022-08-25T00:06:43.484Z,22.13
2022-08-25T00:07:18.661Z,22.13
2022-08-25T00:07:51.992Z,22.11
2022-08-25T00:08:25.106Z,22.09
2022-08-25T00:09:00.061Z,22.07
2022-08-25T00:09:35.312Z,22.04
2022-08-25T00:10:09.523Z,22.03
2022-08-25T00:10:42.968Z,22.02
2022-08-25T00:11:30.446Z,22.00
2022-08-25T00:12:06.250Z,21.99
2022-08-25T00:12:39.463Z,21.96
2022-08-25T00:13:12.925Z,21.93
2022-08-25T00:13:52.944Z,21.92
2022-08-25T00:14:33.706Z,21.89
2022-08-25T00:15:07.089Z,21.87
2022-08-25T00:15:40.840Z,21.83
2022-08-25T00:16:16.955Z,21.80
2022-08-25T00:16:50.794Z,21.80
2022-08-25T00:17:23.868Z,21.80
2022-08-25T00:17:57.583Z,21.81
2022-08-25T00:18:30.736Z,21.81
2022-08-25T00:19:11.847Z,21.82
2022-08-25T00:19:45.455Z,21.82
2022-08-25T00:20:19.170Z,21.82
2022-08-25T00:20:52.645Z,21.83
2022-08-25T00:21:26.864Z,21.84
2022-08-25T00:22:01.814Z,21.85
2022-08-25T00:22:35.055Z,21.85
2022-08-25T00:23:08.208Z,21.86
2022-08-25T00:23:42.695Z,21.86
2022-08-25T00:24:19.805Z,21.86
2022-08-25T00:24:53.248Z,21.86
2022-08-25T00:25:27.244Z,21.87
2022-08-25T00:26:02.746Z,21.87
2022-08-25T00:26:40.094Z,21.86
2022-08-25T00:27:13.282Z,21.85
2022-08-25T00:27:47.640Z,21.84
2022-08-25T00:28:21.462Z,21.85
2022-08-25T00:29:01.681Z,21.86
2022-08-25T00:29:38.262Z,21.85
2022-08-25T00:30:12.318Z,21.81
2022-08-25T00:30:49.884Z,21.79
2022-08-25T00:31:37.707Z,21.78
2022-08-25T00:32:13.103Z,21.78
2022-08-25T00:32:51.453Z,21.78
2022-08-25T00:33:33.959Z,21.76
2022-08-25T00:34:10.079Z,21.75
2022-08-25T00:34:43.332Z,21.75
2022-08-25T00:35:16.728Z,21.74
2022-08-25T00:35:50.741Z,21.75
2022-08-25T00:36:23.832Z,21.74
2022-08-25T00:36:57.018Z,21.75
2022-08-25T00:37:30.170Z,21.75
2022-08-25T00:38:04.088Z,21.74
2022-08-25T00:38:38.442Z,21.74
2022-08-25T00:39:12.212Z,21.73
2022-08-25T00:39:46.109Z,21.72
2022-08-25T00:40:20.545Z,21.72
2022-08-25T00:41:06.460Z,21.72
2022-08-25T00:41:42.624Z,21.71
2022-08-25T00:42:16.230Z,21.70
2022-08-25T00:42:49.624Z,21.69
2022-08-25T00:43:23.373Z,21.69
2022-08-25T00:43:59.909Z,21.68
2022-08-25T00:44:34.399Z,21.67
2022-08-25T00:45:09.840Z,21.65
2022-08-25T00:45:43.179Z,21.63
2022-08-25T00:46:21.102Z,21.61
2022-08-25T00:46:57.963Z,21.60
2022-08-25T00:47:31.438Z,21.60
2022-08-25T00:48:05.216Z,21.59
2022-08-25T00:48:42.670Z,21.58
2022-08-25T00:49:24.947Z,21.55
2022-08-25T00:50:02.302Z,21.52
2022-08-25T00:50:35.489Z,21.49
2022-08-25T00:51:12.035Z,21.47
2022-08-25T00:51:49.866Z,21.44
2022-08-25T00:52:28.549Z,21.42
2022-08-25T00:53:04.578Z,21.41
2022-08-25T00:53:39.631Z,21.41
2022-08-25T00:54:23.179Z,21.41
2022-08-25T00:55:08.075Z,21.40
2022-08-25T00:55:41.950Z,21.38
2022-08-25T00:56:15.362Z,21.37
2022-08-25T00:56:52.364Z,21.36
2022-08-25T00:57:34.061Z,21.35
2022-08-25T00:58:20.560Z,21.34
2022-08-25T00:58:53.917Z,21.33
2022-08-25T00:59:28.135Z,21.32
2022-08-25T01:00:02.304Z,21.33
2022-08-25T01:00:39.817Z,21.32
2022-08-25T01:01:12.981Z,21.31
2022-08-25T01:01:46.437Z,21.29
2022-08-25T01:02:19.795Z,21.29
2022-08-25T01:02:53.017Z,21.28
2022-08-25T01:03:33.000Z,21.28
2022-08-25T01:04:08.693Z,21.28
2022-08-25T01:04:49.132Z,21.26
2022-08-25T01:05:22.652Z,21.25
2022-08-25T01:05:57.328Z,21.22
2022-08-25T01:06:36.436Z,21.19
2022-08-25T01:07:13.822Z,21.16
2022-08-25T01:07:52.637Z,21.15
2022-08-25T01:08:33.501Z,21.15
2022-08-25T01:09:07.750Z,21.14
2022-08-25T01:09:42.781Z,21.13
2022-08-25T01:10:18.935Z,21.14
2022-08-25T01:10:52.564Z,21.13
2022-08-25T01:11:27.068Z,21.12
2022-08-25T01:12:01.718Z,21.12
2022-08-25T01:12:37.623Z,21.11
2022-08-25T01:13:20.009Z,21.11
2022-08-25T01:13:56.164Z,21.11
2022-08-25T01:14:31.772Z,21.10
2022-08-25T01:15:07.076Z,21.07
2022-08-25T01:15:41.949Z,21.06
2022-08-25T01:16:16.646Z,21.05
2022-08-25T01:16:51.030Z,21.04
2022-08-25T01:17:35.182Z,21.05
2022-08-25T01:18:09.082Z,21.06
2022-08-25T01:18:51.461Z,21.06
2022-08-25T01:19:26.520Z,21.07
2022-08-25T01:19:59.678Z,21.07
2022-08-25T01:20:35.133Z,21.06
2022-08-25T01:21:08.278Z,21.06
2022-08-25T01:21:51.051Z,21.04
2022-08-25T01:22:26.940Z,21.02
2022-08-25T01:23:01.031Z,21.00
2022-08-25T01:23:34.500Z,20.99
2022-08-25T01:24:14.567Z,20.99
2022-08-25T01:24:57.288Z,21.00
2022-08-25T01:25:57.547Z,20.99
2022-08-25T01:26:33.799Z,20.97
2022-08-25T01:27:08.109Z,20.95
2022-08-25T01:27:41.202Z,20.96
2022-08-25T01:28:15.170Z,20.98
2022-08-25T01:29:09.117Z,20.99
2022-08-25T01:29:42.888Z,20.98
2022-08-25T01:30:16.261Z,20.98
2022-08-25T01:30:50.399Z,20.97
2022-08-25T01:31:24.451Z,20.96
2022-08-25T01:32:04.857Z,20.96
2022-08-25T01:32:38.144Z,20.96
2022-08-25T01:33:13.108Z,20.96
2022-08-25T01:33:46.340Z,20.96
2022-08-25T01:34:20.493Z,20.95
2022-08-25T01:34:53.664Z,20.94
2022-08-25T01:35:27.145Z,20.94
2022-08-25T01:36:00.396Z,20.93
2022-08-25T01:36:35.931Z,20.92
2022-08-25T01:37:12.083Z,20.91
2022-08-25T01:37:46.912Z,20.91
2022-08-25T01:38:21.306Z,20.90
2022-08-25T01:38:56.909Z,20.88
2022-08-25T01:39:34.128Z,20.87
2022-08-25T01:40:07.919Z,20.88
2022-08-25T01:40:43.185Z,20.88
2022-08-25T01:41:45.040Z,20.88
2022-08-25T01:43:00.384Z,20.86
2022-08-25T01:43:39.150Z,20.80
2022-08-25T01:44:16.157Z,20.76
2022-08-25T01:44:50.069Z,20.75
2022-08-25T01:45:23.473Z,20.73
2022-08-25T01:45:58.290Z,20.72
2022-08-25T01:46:32.861Z,20.71
2022-08-25T01:47:07.830Z,20.72
2022-08-25T01:47:41.408Z,20.71
2022-08-25T01:48:16.439Z,20.70
2022-08-25T01:48:49.727Z,20.69
2022-08-25T01:49:23.339Z,20.69
2022-08-25T01:49:56.794Z,20.69
2022-08-25T01:50:30.148Z,20.68
2022-08-25T01:51:03.302Z,20.68
2022-08-25T01:51:56.013Z,20.68
2022-08-25T01:52:35.218Z,20.68
2022-08-25T01:53:12.356Z,20.68
2022-08-25T01:53:45.565Z,20.68
2022-08-25T01:54:18.941Z,20.67
2022-08-25T01:54:52.169Z,20.68
2022-08-25T01:55:25.913Z,20.69
2022-08-25T01:56:06.509Z,20.69
2022-08-25T01:56:43.691Z,20.68
2022-08-25T01:57:16.900Z,20.67
2022-08-25T01:57:50.100Z,20.66
2022-08-25T01:58:26.715Z,20.66
2022-08-25T01:58:59.819Z,20.66
2022-08-25T01:59:33.429Z,20.66
2022-08-25T02:00:09.522Z,20.65
2022-08-25T02:00:46.764Z,20.65
2022-08-25T02:01:23.060Z,20.63
2022-08-25T02:01:59.730Z,20.63
2022-08-25T02:02:33.459Z,20.62
2022-08-25T02:03:08.474Z,20.63
2022-08-25T02:03:54.840Z,20.64
2022-08-25T02:04:32.536Z,20.64
2022-08-25T02:05:06.555Z,20.65
2022-08-25T02:05:39.701Z,20.65
2022-08-25T02:06:14.819Z,20.66
2022-08-25T02:06:47.846Z,20.67
2022-08-25T02:07:21.159Z,20.66
2022-08-25T02:07:54.975Z,20.63
2022-08-25T02:08:28.155Z,20.62
2022-08-25T02:09:12.106Z,20.60
2022-08-25T02:09:45.455Z,20.58
2022-08-25T02:10:19.133Z,20.56
2022-08-25T02:10:54.206Z,20.55
2022-08-25T02:11:28.624Z,20.53
2022-08-25T02:12:01.878Z,20.52
2022-08-25T02:12:37.201Z,20.51
2022-08-25T02:13:11.320Z,20.50
2022-08-25T02:13:47.911Z,20.50
2022-08-25T02:14:21.211Z,20.49
2022-08-25T02:14:54.343Z,20.49
2022-08-25T02:15:27.966Z,20.49
2022-08-25T02:16:02.473Z,20.50
2022-08-25T02:16:39.045Z,20.50
2022-08-25T02:17:12.451Z,20.49
2022-08-25T02:17:45.577Z,20.49
2022-08-25T02:18:19.979Z,20.49
2022-08-25T02:18:53.455Z,20.50
2022-08-25T02:19:26.800Z,20.51
2022-08-25T02:19:59.956Z,20.51
2022-08-25T02:20:33.107Z,20.51
2022-08-25T02:21:06.350Z,20.51
2022-08-25T02:21:40.286Z,20.51
2022-08-25T02:22:13.342Z,20.51
2022-08-25T02:22:53.077Z,20.51
2022-08-25T02:23:30.368Z,20.49
2022-08-25T02:24:04.595Z,20.48
2022-08-25T02:24:38.090Z,20.47
2022-08-25T02:25:11.751Z,20.44
2022-08-25T02:25:44.860Z,20.42
2022-08-25T02:26:20.180Z,20.40
2022-08-25T02:26:53.582Z,20.40
2022-08-25T02:27:26.795Z,20.40
2022-08-25T02:28:01.072Z,20.41
2022-08-25T02:28:34.819Z,20.41
2022-08-25T02:29:08.697Z,20.42
2022-08-25T02:29:42.136Z,20.44
2022-08-25T02:30:17.273Z,20.44
2022-08-25T02:30:53.318Z,20.45
2022-08-25T02:31:34.297Z,20.44
2022-08-25T02:32:08.274Z,20.43
2022-08-25T02:32:42.171Z,20.43
2022-08-25T02:33:15.463Z,20.42
2022-08-25T02:33:49.755Z,20.41
2022-08-25T02:34:24.261Z,20.42
2022-08-25T02:34:57.226Z,20.42
2022-08-25T02:35:31.351Z,20.42
2022-08-25T02:36:05.362Z,20.40
2022-08-25T02:36:40.473Z,20.38
2022-08-25T02:37:14.468Z,20.38
2022-08-25T02:37:47.915Z,20.36
2022-08-25T02:38:21.125Z,20.35
2022-08-25T02:38:54.716Z,20.33
2022-08-25T02:39:28.017Z,20.31
2022-08-25T02:40:01.726Z,20.31
2022-08-25T02:40:35.480Z,20.31
2022-08-25T02:41:12.995Z,20.30
2022-08-25T02:41:46.309Z,20.31
2022-08-25T02:42:19.545Z,20.29
2022-08-25T02:42:53.876Z,20.29
2022-08-25T02:43:28.312Z,20.29
2022-08-25T02:44:03.914Z,20.29
2022-08-25T02:44:37.385Z,20.29
2022-08-25T02:45:10.989Z,20.28
2022-08-25T02:45:44.248Z,20.29
2022-08-25T02:46:20.268Z,20.28
2022-08-25T02:46:53.401Z,20.28
2022-08-25T02:47:27.028Z,20.26
2022-08-25T02:48:00.649Z,20.26
2022-08-25T02:48:34.185Z,20.25
2022-08-25T02:49:09.356Z,20.25
2022-08-25T02:49:42.853Z,20.25
2022-08-25T02:50:16.542Z,20.24
2022-08-25T02:50:52.803Z,20.24
2022-08-25T02:51:30.360Z,20.24
2022-08-25T02:52:04.014Z,20.24
2022-08-25T02:52:38.560Z,20.25
2022-08-25T02:53:11.782Z,20.25
2022-08-25T02:53:47.197Z,20.24
2022-08-25T02:54:20.578Z,20.23
2022-08-25T02:54:55.792Z,20.24
2022-08-25T02:55:29.027Z,20.23
2022-08-25T02:56:02.479Z,20.22
2022-08-25T02:56:35.645Z,20.21
2022-08-25T02:57:08.872Z,20.22
2022-08-25T02:57:42.759Z,20.21
2022-08-25T02:58:16.158Z,20.19
2022-08-25T02:58:49.413Z,20.19
2022-08-25T02:59:22.624Z,20.18
2022-08-25T02:59:55.710Z,20.17
2022-08-25T03:00:28.983Z,20.16
2022-08-25T03:01:02.263Z,20.15
2022-08-25T03:01:35.614Z,20.14
2022-08-25T03:02:08.765Z,20.13
2022-08-25T03:02:43.224Z,20.11
2022-08-25T03:03:16.877Z,20.09
2022-08-25T03:03:52.676Z,20.09
2022-08-25T03:04:25.899Z,20.07
2022-08-25T03:04:59.290Z,20.06
2022-08-25T03:05:33.317Z,20.06
2022-08-25T03:06:13.002Z,20.06
2022-08-25T03:06:46.531Z,20.06
2022-08-25T03:07:22.399Z,20.03
2022-08-25T03:07:58.076Z,20.03
2022-08-25T03:08:31.349Z,20.03
2022-08-25T03:09:04.954Z,20.03
2022-08-25T03:09:38.409Z,20.02
2022-08-25T03:10:16.469Z,20.02
2022-08-25T03:10:49.681Z,20.02
2022-08-25T03:11:26.797Z,20.01
2022-08-25T03:12:00.104Z,20.01
2022-08-25T03:12:33.815Z,20.01
2022-08-25T03:13:07.167Z,20.00
2022-08-25T03:13:40.905Z,19.99
2022-08-25T03:14:14.253Z,19.98
2022-08-25T03:14:47.536Z,19.97
2022-08-25T03:15:21.287Z,19.95
2022-08-25T03:15:54.794Z,19.94
2022-08-25T03:16:29.732Z,19.92
2022-08-25T03:17:03.097Z,19.91
2022-08-25T03:17:45.596Z,19.90
2022-08-25T03:18:19.344Z,19.91
2022-08-25T03:18:52.437Z,19.90
2022-08-25T03:19:25.568Z,19.91
2022-08-25T03:19:59.000Z,19.90
2022-08-25T03:20:33.896Z,19.91
2022-08-25T03:21:07.497Z,19.90
2022-08-25T03:21:40.707Z,19.89
2022-08-25T03:22:13.887Z,19.87
2022-08-25T03:22:47.207Z,19.86
2022-08-25T03:23:21.087Z,19.85
2022-08-25T03:23:54.216Z,19.85
2022-08-25T03:24:28.490Z,19.82
2022-08-25T03:25:23.993Z,19.81
2022-08-25T03:26:16.175Z,19.79
2022-08-25T03:26:56.344Z,19.76
2022-08-25T03:27:30.738Z,19.75
2022-08-25T03:28:05.121Z,19.74
2022-08-25T03:28:39.186Z,19.74
2022-08-25T03:29:13.830Z,19.75
2022-08-25T03:29:47.400Z,19.76
2022-08-25T03:30:21.157Z,19.75
2022-08-25T03:30:55.877Z,19.75
2022-08-25T03:31:29.504Z,19.76
2022-08-25T03:32:03.168Z,19.76
2022-08-25T03:32:36.681Z,19.77
2022-08-25T03:33:10.433Z,19.77
2022-08-25T03:33:43.771Z,19.77
2022-08-25T03:34:18.551Z,19.76
2022-08-25T03:34:51.933Z,19.75
2022-08-25T03:35:25.229Z,19.74
2022-08-25T03:35:59.540Z,19.74
2022-08-25T03:36:32.738Z,19.74
2022-08-25T03:37:08.785Z,19.73
2022-08-25T03:37:42.040Z,19.71
2022-08-25T03:38:17.304Z,19.70
2022-08-25T03:38:51.345Z,19.70
2022-08-25T03:39:26.386Z,19.69
2022-08-25T03:40:00.255Z,19.68
2022-08-25T03:40:33.549Z,19.68
2022-08-25T03:41:16.016Z,19.69
2022-08-25T03:41:49.874Z,19.69
2022-08-25T03:42:23.190Z,19.69
2022-08-25T03:42:57.189Z,19.70
2022-08-25T03:43:30.385Z,19.71
2022-08-25T03:44:05.573Z,19.71
2022-08-25T03:44:38.689Z,19.71
2022-08-25T03:45:14.244Z,19.72
2022-08-25T03:45:48.191Z,19.72
2022-08-25T03:46:33.140Z,19.71
2022-08-25T03:47:06.642Z,19.70
2022-08-25T03:47:41.043Z,19.69
2022-08-25T03:48:15.668Z,19.69
2022-08-25T03:48:49.897Z,19.69
2022-08-25T03:49:24.659Z,19.69
2022-08-25T03:49:58.232Z,19.70
2022-08-25T03:50:31.890Z,19.70
2022-08-25T03:51:05.625Z,19.70
2022-08-25T03:51:43.779Z,19.70
2022-08-25T03:52:18.570Z,19.71
2022-08-25T03:52:57.364Z,19.71
2022-08-25T03:53:30.461Z,19.72
2022-08-25T03:54:05.532Z,19.72
2022-08-25T03:54:38.894Z,19.73
2022-08-25T03:55:14.903Z,19.74
2022-08-25T03:55:48.723Z,19.75
2022-08-25T03:56:22.044Z,19.76
2022-08-25T03:56:55.927Z,19.76
2022-08-25T03:57:29.324Z,19.77
2022-08-25T03:58:02.641Z,19.78
2022-08-25T03:58:35.739Z,19.78
2022-08-25T03:59:10.358Z,19.79
2022-08-25T03:59:43.686Z,19.77
2022-08-25T04:00:17.681Z,19.77
2022-08-25T04:00:51.002Z,19.76
2022-08-25T04:01:24.778Z,19.76
2022-08-25T04:01:58.294Z,19.76
2022-08-25T04:02:34.050Z,19.76
2022-08-25T04:03:07.302Z,19.77
2022-08-25T04:03:40.616Z,19.76
2022-08-25T04:04:15.705Z,19.77
2022-08-25T04:04:48.993Z,19.77
2022-08-25T04:05:22.555Z,19.76
2022-08-25T04:06:05.133Z,19.77
2022-08-25T04:06:43.726Z,19.78
2022-08-25T04:07:17.431Z,19.78
2022-08-25T04:07:50.656Z,19.78
2022-08-25T04:08:23.975Z,19.79
2022-08-25T04:08:58.979Z,19.81
2022-08-25T04:09:35.229Z,19.82
2022-08-25T04:10:11.334Z,19.83
2022-08-25T04:10:44.766Z,19.83
2022-08-25T04:11:21.335Z,19.84
2022-08-25T04:11:54.743Z,19.84
2022-08-25T04:12:27.945Z,19.85
2022-08-25T04:13:02.067Z,19.85
2022-08-25T04:13:36.439Z,19.84
2022-08-25T04:14:10.121Z,19.83
2022-08-25T04:14:49.421Z,19.83
2022-08-25T04:15:22.585Z,19.84
2022-08-25T04:15:55.736Z,19.84
2022-08-25T04:16:34.136Z,19.82
2022-08-25T04:17:08.687Z,19.83
2022-08-25T04:17:42.613Z,19.83
2022-08-25T04:18:16.660Z,19.85
2022-08-25T04:18:51.195Z,19.86
2022-08-25T04:19:24.426Z,19.88
2022-08-25T04:19:57.584Z,19.89
2022-08-25T04:20:30.741Z,19.90
2022-08-25T04:21:06.343Z,19.91
2022-08-25T04:21:40.934Z,19.92
2022-08-25T04:22:13.949Z,19.92
2022-08-25T04:22:47.200Z,19.92
2022-08-25T04:23:20.841Z,19.92
2022-08-25T04:23:55.600Z,19.92
2022-08-25T04:24:29.036Z,19.93
2022-08-25T04:25:02.652Z,19.92
2022-08-25T04:25:42.422Z,19.93
2022-08-25T04:26:37.475Z,19.93
2022-08-25T04:27:10.612Z,19.92
2022-08-25T04:27:43.684Z,19.92
2022-08-25T04:28:16.798Z,19.93
2022-08-25T04:28:51.095Z,19.95
2022-08-25T04:29:26.231Z,19.95
2022-08-25T04:29:59.683Z,19.96
2022-08-25T04:30:32.861Z,19.97
2022-08-25T04:31:10.237Z,19.97
2022-08-25T04:31:48.690Z,19.98
2022-08-25T04:32:22.813Z,19.99
2022-08-25T04:32:55.986Z,19.98
2022-08-25T04:33:29.930Z,19.98
2022-08-25T04:34:13.435Z,20.00
2022-08-25T04:34:59.296Z,20.00
2022-08-25T04:35:32.576Z,20.00
2022-08-25T04:36:11.892Z,20.00
2022-08-25T04:36:45.801Z,19.99
2022-08-25T04:37:25.904Z,19.98
2022-08-25T04:37:59.886Z,19.98
2022-08-25T04:38:33.844Z,20.00
2022-08-25T04:39:07.727Z,20.02
2022-08-25T04:39:41.559Z,20.05
2022-08-25T04:40:15.075Z,20.07
2022-08-25T04:40:56.874Z,20.09
2022-08-25T04:41:31.622Z,20.12
2022-08-25T04:42:05.563Z,20.13
2022-08-25T04:42:39.086Z,20.16
2022-08-25T04:43:12.744Z,20.18
2022-08-25T04:43:46.434Z,20.20
2022-08-25T04:44:19.802Z,20.21
2022-08-25T04:44:52.920Z,20.22
2022-08-25T04:45:26.194Z,20.22
2022-08-25T04:46:00.595Z,20.24
2022-08-25T04:46:34.987Z,20.24
2022-08-25T04:47:08.085Z,20.26
2022-08-25T04:47:41.245Z,20.27
2022-08-25T04:48:14.314Z,20.28
2022-08-25T04:48:49.408Z,20.29
2022-08-25T04:49:22.559Z,20.31
2022-08-25T04:49:55.680Z,20.33
2022-08-25T04:50:28.871Z,20.35
2022-08-25T04:51:10.494Z,20.37
2022-08-25T04:51:44.529Z,20.39
2022-08-25T04:52:17.865Z,20.41
2022-08-25T04:52:51.058Z,20.43
2022-08-25T04:53:24.254Z,20.46
2022-08-25T04:54:05.850Z,20.48
2022-08-25T04:54:38.989Z,20.50
2022-08-25T04:55:12.121Z,20.51
2022-08-25T04:55:48.060Z,20.52
2022-08-25T04:56:25.408Z,20.54
2022-08-25T04:56:59.015Z,20.57
2022-08-25T04:57:32.823Z,20.57
2022-08-25T04:58:07.045Z,20.59
2022-08-25T04:58:48.204Z,20.60
2022-08-25T04:59:21.687Z,20.61
2022-08-25T04:59:55.829Z,20.62
2022-08-25T05:00:29.315Z,20.65
2022-08-25T05:01:24.407Z,20.68
2022-08-25T05:02:02.870Z,20.70
2022-08-25T05:02:36.411Z,20.69
2022-08-25T05:03:10.112Z,20.69
2022-08-25T05:03:44.596Z,20.69
2022-08-25T05:04:27.727Z,20.70
2022-08-25T05:05:04.511Z,20.71
2022-08-25T05:05:38.375Z,20.71
2022-08-25T05:06:15.837Z,20.72
2022-08-25T05:06:49.684Z,20.73
2022-08-25T05:07:23.172Z,20.75
2022-08-25T05:07:56.893Z,20.78
2022-08-25T05:08:30.162Z,20.80
2022-08-25T05:09:05.402Z,20.83
2022-08-25T05:09:38.725Z,20.84
2022-08-25T05:10:12.285Z,20.86
2022-08-25T05:10:45.395Z,20.89
2022-08-25T05:11:19.847Z,20.93
2022-08-25T05:11:56.885Z,20.95
2022-08-25T05:12:30.729Z,20.98
2022-08-25T05:13:06.376Z,21.01
2022-08-25T05:13:41.404Z,21.03
2022-08-25T05:14:18.527Z,21.05
2022-08-25T05:14:55.104Z,21.07
2022-08-25T05:15:47.072Z,21.08
2022-08-25T05:16:26.338Z,21.11
2022-08-25T05:17:00.096Z,21.12
2022-08-25T05:17:33.330Z,21.14
2022-08-25T05:18:07.543Z,21.16
2022-08-25T05:18:41.555Z,21.17
2022-08-25T05:19:15.075Z,21.20
2022-08-25T05:19:48.246Z,21.21
2022-08-25T05:20:21.511Z,21.22
2022-08-25T05:20:56.373Z,21.24
2022-08-25T05:21:29.589Z,21.25
2022-08-25T05:22:02.697Z,21.27
2022-08-25T05:22:35.918Z,21.29
2022-08-25T05:23:09.144Z,21.31
2022-08-25T05:23:43.746Z,21.34
2022-08-25T05:24:16.920Z,21.36
2022-08-25T05:24:51.350Z,21.37
2022-08-25T05:25:24.816Z,21.39
2022-08-25T05:26:05.203Z,21.41
2022-08-25T05:26:38.607Z,21.43
2022-08-25T05:27:12.302Z,21.46
2022-08-25T05:27:45.478Z,21.47
2022-08-25T05:28:20.664Z,21.50
2022-08-25T05:28:55.454Z,21.51
2022-08-25T05:29:28.796Z,21.52
2022-08-25T05:30:02.057Z,21.54
2022-08-25T05:30:39.554Z,21.56
2022-08-25T05:31:14.908Z,21.58
2022-08-25T05:31:50.553Z,21.60
2022-08-25T05:32:24.710Z,21.63
2022-08-25T05:32:57.930Z,21.64
2022-08-25T05:33:32.709Z,21.66
2022-08-25T05:34:08.434Z,21.68
2022-08-25T05:34:41.545Z,21.70
2022-08-25T05:35:16.366Z,21.72
2022-08-25T05:35:49.492Z,21.74
2022-08-25T05:36:27.043Z,21.76
2022-08-25T05:37:03.665Z,21.78
2022-08-25T05:37:38.294Z,21.80
2022-08-25T05:38:15.344Z,21.82
2022-08-25T05:38:49.629Z,21.83
2022-08-25T05:39:22.808Z,21.84
2022-08-25T05:39:57.149Z,21.85
2022-08-25T05:40:31.104Z,21.85
2022-08-25T05:41:10.746Z,21.88
2022-08-25T05:41:44.435Z,21.88
2022-08-25T05:42:18.039Z,21.88
2022-08-25T05:42:51.621Z,21.89
2022-08-25T05:43:27.049Z,21.89
2022-08-25T05:44:00.405Z,21.91
2022-08-25T05:44:34.343Z,21.93
2022-08-25T05:45:08.465Z,21.93
2022-08-25T05:45:42.124Z,21.95
2022-08-25T05:46:16.676Z,21.96
2022-08-25T05:46:50.844Z,21.98
2022-08-25T05:47:24.345Z,22.00
2022-08-25T05:47:58.437Z,22.02
2022-08-25T05:48:31.619Z,22.04
2022-08-25T05:49:04.763Z,22.06
2022-08-25T05:49:37.981Z,22.09
2022-08-25T05:50:11.593Z,22.12
2022-08-25T05:50:52.515Z,22.15
2022-08-25T05:51:26.939Z,22.17
2022-08-25T05:52:00.191Z,22.20
2022-08-25T05:52:33.409Z,22.21
2022-08-25T05:53:06.787Z,22.23
2022-08-25T05:53:43.328Z,22.23
2022-08-25T05:54:16.677Z,22.25
2022-08-25T05:54:49.708Z,22.26
2022-08-25T05:55:22.853Z,22.29
2022-08-25T05:55:58.447Z,22.31
2022-08-25T05:56:31.724Z,22.34
2022-08-25T05:57:05.202Z,22.35
2022-08-25T05:57:38.806Z,22.36
2022-08-25T05:58:12.193Z,22.37
2022-08-25T05:58:47.935Z,22.38
2022-08-25T05:59:21.031Z,22.38
2022-08-25T05:59:54.198Z,22.40
2022-08-25T06:00:27.451Z,22.41
2022-08-25T06:01:21.450Z,22.40
2022-08-25T06:02:13.394Z,22.40
2022-08-25T06:02:48.790Z,22.38
2022-08-25T06:03:22.116Z,22.38
2022-08-25T06:03:55.461Z,22.38
2022-08-25T06:04:28.837Z,22.39
2022-08-25T06:05:02.370Z,22.40
2022-08-25T06:05:35.623Z,22.42
2022-08-25T06:06:09.329Z,22.44
2022-08-25T06:06:42.852Z,22.47
2022-08-25T06:07:16.242Z,22.49
2022-08-25T06:07:51.276Z,22.51
2022-08-25T06:08:24.485Z,22.53
2022-08-25T06:08:57.790Z,22.54
2022-08-25T06:09:31.070Z,22.56
2022-08-25T06:10:07.133Z,22.58
2022-08-25T06:10:40.429Z,22.60
2022-08-25T06:11:14.439Z,22.62
2022-08-25T06:11:52.844Z,22.65
2022-08-25T06:12:27.994Z,22.65
2022-08-25T06:13:01.178Z,22.67
2022-08-25T06:13:34.464Z,22.68
2022-08-25T06:14:09.288Z,22.69
2022-08-25T06:14:42.745Z,22.71
2022-08-25T06:15:22.218Z,22.72
2022-08-25T06:16:00.153Z,22.76
2022-08-25T06:16:33.603Z,22.78
2022-08-25T06:17:06.987Z,22.81
2022-08-25T06:17:43.304Z,22.84
2022-08-25T06:18:17.306Z,22.86
2022-08-25T06:18:50.924Z,22.89
2022-08-25T06:19:24.018Z,22.91
2022-08-25T06:19:57.657Z,22.93
2022-08-25T06:20:32.315Z,22.96
2022-08-25T06:21:14.602Z,22.98
2022-08-25T06:21:48.017Z,23.02
2022-08-25T06:22:22.051Z,23.04
2022-08-25T06:22:55.383Z,23.06
2022-08-25T06:23:28.705Z,23.07
2022-08-25T06:24:02.080Z,23.09
2022-08-25T06:24:35.526Z,23.11
2022-08-25T06:25:10.547Z,23.13
2022-08-25T06:25:50.392Z,23.15
2022-08-25T06:26:23.857Z,23.18
2022-08-25T06:26:58.188Z,23.20
2022-08-25T06:27:31.713Z,23.21
2022-08-25T06:28:05.119Z,23.23
2022-08-25T06:28:38.493Z,23.26
2022-08-25T06:29:14.344Z,23.29
2022-08-25T06:29:47.576Z,23.31
2022-08-25T06:30:24.584Z,23.33
2022-08-25T06:31:03.728Z,23.37
2022-08-25T06:31:36.942Z,23.38
2022-08-25T06:32:10.199Z,23.39
2022-08-25T06:32:45.351Z,23.41
2022-08-25T06:33:18.480Z,23.43
2022-08-25T06:33:52.593Z,23.44
2022-08-25T06:34:25.861Z,23.46
2022-08-25T06:34:59.538Z,23.48
2022-08-25T06:35:32.690Z,23.49
2022-08-25T06:36:09.049Z,23.51
2022-08-25T06:36:42.417Z,23.53
2022-08-25T06:37:15.633Z,23.54
2022-08-25T06:37:48.719Z,23.56
2022-08-25T06:38:22.365Z,23.58
2022-08-25T06:38:55.493Z,23.59
2022-08-25T06:39:29.383Z,23.61
2022-08-25T06:40:02.892Z,23.63
2022-08-25T06:40:36.404Z,23.66
2022-08-25T06:41:14.168Z,23.69
2022-08-25T06:41:51.734Z,23.72
2022-08-25T06:42:24.934Z,23.75
2022-08-25T06:42:58.073Z,23.77
2022-08-25T06:43:33.438Z,23.79
2022-08-25T06:44:06.577Z,23.80
2022-08-25T06:44:39.861Z,23.80
2022-08-25T06:45:13.031Z,23.79
2022-08-25T06:45:48.623Z,23.78
2022-08-25T06:46:35.927Z,23.79
2022-08-25T06:47:10.166Z,23.80
2022-08-25T06:47:45.621Z,23.81
2022-08-25T06:48:19.353Z,23.81
2022-08-25T06:48:53.161Z,23.83
2022-08-25T06:49:31.828Z,23.85
2022-08-25T06:50:07.944Z,23.88
2022-08-25T06:50:41.687Z,23.89
2022-08-25T06:51:18.412Z,23.91
2022-08-25T06:51:51.679Z,23.94
2022-08-25T06:52:29.225Z,23.96
2022-08-25T06:53:02.820Z,23.99
2022-08-25T06:53:36.775Z,24.01
2022-08-25T06:54:10.587Z,24.05
2022-08-25T06:54:43.822Z,24.08
2022-08-25T06:55:21.991Z,24.11
2022-08-25T06:56:02.270Z,24.14
2022-08-25T06:56:40.104Z,24.17
2022-08-25T06:57:13.860Z,24.19
2022-08-25T06:57:47.073Z,24.20
2022-08-25T06:58:20.209Z,24.22
2022-08-25T06:58:53.221Z,24.24
2022-08-25T06:59:32.156Z,24.26
2022-08-25T07:00:08.804Z,24.29
2022-08-25T07:00:42.016Z,24.31
2022-08-25T07:01:25.763Z,24.33
2022-08-25T07:01:59.820Z,24.37
2022-08-25T07:02:35.465Z,24.39
2022-08-25T07:03:08.642Z,24.40
2022-08-25T07:03:42.190Z,24.42
2022-08-25T07:04:15.523Z,24.44
2022-08-25T07:04:48.726Z,24.45
2022-08-25T07:05:33.619Z,24.47
2022-08-25T07:06:13.971Z,24.47
2022-08-25T07:06:48.401Z,24.46
2022-08-25T07:07:21.611Z,24.45
2022-08-25T07:07:55.383Z,24.45
2022-08-25T07:08:28.435Z,24.45
2022-08-25T07:09:04.864Z,24.45
2022-08-25T07:09:39.252Z,24.46
2022-08-25T07:10:13.801Z,24.47
2022-08-25T07:10:52.813Z,24.49
2022-08-25T07:11:26.776Z,24.51
2022-08-25T07:11:59.943Z,24.52
2022-08-25T07:12:33.052Z,24.52
2022-08-25T07:13:06.315Z,24.54
2022-08-25T07:13:39.454Z,24.55
2022-08-25T07:14:14.753Z,24.57
2022-08-25T07:15:03.610Z,24.59
2022-08-25T07:15:42.645Z,24.61
2022-08-25T07:16:20.979Z,24.62
2022-08-25T07:16:54.284Z,24.64
2022-08-25T07:17:27.651Z,24.66
2022-08-25T07:18:00.949Z,24.67
2022-08-25T07:18:35.693Z,24.70
2022-08-25T07:19:09.733Z,24.73
2022-08-25T07:19:48.044Z,24.74
2022-08-25T07:21:00.200Z,24.75
2022-08-25T07:21:37.488Z,24.76
2022-08-25T07:22:10.668Z,24.76
2022-08-25T07:22:43.920Z,24.76
2022-08-25T07:23:17.005Z,24.75
2022-08-25T07:23:50.156Z,24.75
2022-08-25T07:24:23.526Z,24.73
2022-08-25T07:24:56.630Z,24.72
2022-08-25T07:25:30.193Z,24.72
2022-08-25T07:26:36.415Z,24.73
2022-08-25T07:27:08.703Z,24.74
2022-08-25T07:27:42.329Z,24.75
2022-08-25T07:28:17.189Z,24.78
2022-08-25T07:28:50.984Z,24.80
2022-08-25T07:30:21.989Z,24.86
2022-08-25T07:30:56.714Z,24.87
2022-08-25T07:31:31.616Z,24.86
2022-08-25T07:32:06.884Z,24.86
2022-08-25T07:32:42.259Z,24.87
2022-08-25T07:33:16.287Z,24.87
2022-08-25T07:34:08.323Z,24.89
2022-08-25T07:35:01.256Z,24.92
2022-08-25T07:35:37.806Z,24.92
2022-08-25T07:36:11.111Z,24.92
2022-08-25T07:36:44.769Z,24.93
2022-08-25T07:37:27.498Z,24.94